sensor_id;sensor_type;location;lat;lon;timestamp;P1;durP1;ratioP1;P2;durP2;ratioP2
75062;SDS011;63981;51.052;13.754;2023-02-28T00:01:21;6.47;;;3.60;;
75062;SDS011;63981;51.052;13.754;2023-02-28T00:03:47;6.53;;;3.45;;
75062;SDS011;63981;51.052;13.754;2023-02-28T00:06:13;5.97;;;3.50;;
75062;SDS011;63981;51.052;13.754;2023-02-28T00:08:39;6.53;;;3.58;;
75062;SDS011;63981;51.052;13.754;2023-02-28T00:11:06;8.25;;;3.70;;
75062;SDS011;63981;51.052;13.754;2023-02-28T00:13:34;4.57;;;3.40;;
75062;SDS011;63981;51.052;13.754;2023-02-28T00:18:29;6.82;;;3.40;;
75062;SDS011;63981;51.052;13.754;2023-02-28T00:20:55;4.28;;;3.05;;
75062;SDS011;63981;51.052;13.754;2023-02-28T00:23:21;6.57;;;3.00;;
75062;SDS011;63981;51.052;13.754;2023-02-28T00:25:47;6.35;;;3.35;;
75062;SDS011;63981;51.052;13.754;2023-02-28T00:28:13;6.32;;;3.58;;
75062;SDS011;63981;51.052;13.754;2023-02-28T00:30:38;4.57;;;3.10;;
75062;SDS011;63981;51.052;13.754;2023-02-28T00:33:04;6.35;;;4.05;;
75062;SDS011;63981;51.052;13.754;2023-02-28T00:35:30;5.03;;;3.50;;
75062;SDS011;63981;51.052;13.754;2023-02-28T00:37:55;5.40;;;3.53;;
75062;SDS011;63981;51.052;13.754;2023-02-28T00:40:21;7.80;;;4.70;;
75062;SDS011;63981;51.052;13.754;2023-02-28T00:42:47;7.97;;;4.30;;
75062;SDS011;63981;51.052;13.754;2023-02-28T00:45:12;7.78;;;4.88;;
75062;SDS011;63981;51.052;13.754;2023-02-28T00:47:38;8.23;;;4.72;;
75062;SDS011;63981;51.052;13.754;2023-02-28T00:50:04;8.73;;;5.10;;
75062;SDS011;63981;51.052;13.754;2023-02-28T00:52:31;8.13;;;4.43;;
75062;SDS011;63981;51.052;13.754;2023-02-28T00:54:56;7.80;;;4.35;;
75062;SDS011;63981;51.052;13.754;2023-02-28T00:57:22;8.65;;;4.13;;
75062;SDS011;63981;51.052;13.754;2023-02-28T00:59:48;6.63;;;3.70;;
75062;SDS011;63981;51.052;13.754;2023-02-28T01:02:14;6.65;;;3.47;;
75062;SDS011;63981;51.052;13.754;2023-02-28T01:04:40;4.57;;;3.22;;
75062;SDS011;63981;51.052;13.754;2023-02-28T01:07:05;5.85;;;3.78;;
75062;SDS011;63981;51.052;13.754;2023-02-28T01:09:31;7.50;;;4.10;;
75062;SDS011;63981;51.052;13.754;2023-02-28T01:11:57;9.18;;;4.47;;
75062;SDS011;63981;51.052;13.754;2023-02-28T01:14:23;7.57;;;4.32;;
75062;SDS011;63981;51.052;13.754;2023-02-28T01:16:49;6.43;;;3.67;;
75062;SDS011;63981;51.052;13.754;2023-02-28T01:19:16;7.13;;;4.30;;
75062;SDS011;63981;51.052;13.754;2023-02-28T01:21:42;7.43;;;3.40;;
75062;SDS011;63981;51.052;13.754;2023-02-28T01:24:08;7.32;;;4.45;;
75062;SDS011;63981;51.052;13.754;2023-02-28T01:26:34;7.03;;;3.53;;
75062;SDS011;63981;51.052;13.754;2023-02-28T01:29:00;5.55;;;3.65;;
75062;SDS011;63981;51.052;13.754;2023-02-28T01:31:26;5.22;;;3.53;;
75062;SDS011;63981;51.052;13.754;2023-02-28T01:33:52;5.88;;;3.72;;
75062;SDS011;63981;51.052;13.754;2023-02-28T01:36:19;7.15;;;3.97;;
75062;SDS011;63981;51.052;13.754;2023-02-28T01:41:14;7.43;;;4.00;;
75062;SDS011;63981;51.052;13.754;2023-02-28T01:46:08;5.22;;;3.33;;
75062;SDS011;63981;51.052;13.754;2023-02-28T01:48:36;6.82;;;3.67;;
75062;SDS011;63981;51.052;13.754;2023-02-28T01:51:08;6.22;;;3.60;;
75062;SDS011;63981;51.052;13.754;2023-02-28T01:53:42;4.93;;;2.95;;
75062;SDS011;63981;51.052;13.754;2023-02-28T01:56:13;7.63;;;3.75;;
75062;SDS011;63981;51.052;13.754;2023-02-28T01:58:48;6.70;;;3.97;;
75062;SDS011;63981;51.052;13.754;2023-02-28T02:01:16;8.43;;;3.97;;
75062;SDS011;63981;51.052;13.754;2023-02-28T02:03:48;5.78;;;3.30;;
75062;SDS011;63981;51.052;13.754;2023-02-28T02:06:24;4.60;;;3.42;;
75062;SDS011;63981;51.052;13.754;2023-02-28T02:08:54;6.90;;;3.72;;
75062;SDS011;63981;51.052;13.754;2023-02-28T02:11:20;6.53;;;3.75;;
75062;SDS011;63981;51.052;13.754;2023-02-28T02:16:43;5.85;;;3.67;;
75062;SDS011;63981;51.052;13.754;2023-02-28T02:27:23;4.97;;;3.50;;
75062;SDS011;63981;51.052;13.754;2023-02-28T02:35:52;6.68;;;3.78;;
75062;SDS011;63981;51.052;13.754;2023-02-28T02:38:31;11.35;;;4.03;;
75062;SDS011;63981;51.052;13.754;2023-02-28T02:43:48;6.13;;;4.35;;
75062;SDS011;63981;51.052;13.754;2023-02-28T02:46:23;7.50;;;3.95;;
75062;SDS011;63981;51.052;13.754;2023-02-28T02:48:55;7.63;;;4.20;;
75062;SDS011;63981;51.052;13.754;2023-02-28T02:51:23;9.18;;;5.20;;
75062;SDS011;63981;51.052;13.754;2023-02-28T02:54:02;7.90;;;4.82;;
75062;SDS011;63981;51.052;13.754;2023-02-28T02:56:33;7.63;;;4.82;;
75062;SDS011;63981;51.052;13.754;2023-02-28T02:59:02;8.18;;;4.40;;
75062;SDS011;63981;51.052;13.754;2023-02-28T03:01:33;9.77;;;5.03;;
75062;SDS011;63981;51.052;13.754;2023-02-28T03:04:03;8.52;;;5.45;;
75062;SDS011;63981;51.052;13.754;2023-02-28T03:06:32;8.88;;;5.45;;
75062;SDS011;63981;51.052;13.754;2023-02-28T03:08:59;8.23;;;4.65;;
75062;SDS011;63981;51.052;13.754;2023-02-28T03:11:26;9.15;;;5.25;;
75062;SDS011;63981;51.052;13.754;2023-02-28T03:16:32;7.60;;;5.13;;
75062;SDS011;63981;51.052;13.754;2023-02-28T03:27:08;8.18;;;5.32;;
75062;SDS011;63981;51.052;13.754;2023-02-28T03:29:47;8.02;;;5.47;;
75062;SDS011;63981;51.052;13.754;2023-02-28T03:32:32;8.73;;;5.32;;
75062;SDS011;63981;51.052;13.754;2023-02-28T03:35:05;10.60;;;5.93;;
75062;SDS011;63981;51.052;13.754;2023-02-28T03:37:37;7.43;;;4.78;;
75062;SDS011;63981;51.052;13.754;2023-02-28T03:40:10;7.97;;;5.65;;
75062;SDS011;63981;51.052;13.754;2023-02-28T03:42:40;7.13;;;5.13;;
75062;SDS011;63981;51.052;13.754;2023-02-28T03:45:10;9.88;;;6.05;;
75062;SDS011;63981;51.052;13.754;2023-02-28T03:50:36;10.10;;;5.45;;
75062;SDS011;63981;51.052;13.754;2023-02-28T03:53:16;10.50;;;6.00;;
75062;SDS011;63981;51.052;13.754;2023-02-28T03:55:44;7.70;;;6.10;;
75062;SDS011;63981;51.052;13.754;2023-02-28T04:00:46;7.70;;;6.00;;
75062;SDS011;63981;51.052;13.754;2023-02-28T04:03:40;9.40;;;5.65;;
75062;SDS011;63981;51.052;13.754;2023-02-28T04:06:07;8.68;;;5.32;;
75062;SDS011;63981;51.052;13.754;2023-02-28T04:08:39;10.23;;;5.70;;
75062;SDS011;63981;51.052;13.754;2023-02-28T04:13:39;10.00;;;5.50;;
75062;SDS011;63981;51.052;13.754;2023-02-28T04:16:09;8.98;;;6.15;;
75062;SDS011;63981;51.052;13.754;2023-02-28T04:18:38;10.40;;;6.15;;
75062;SDS011;63981;51.052;13.754;2023-02-28T04:21:05;12.57;;;5.60;;
75062;SDS011;63981;51.052;13.754;2023-02-28T04:23:31;9.40;;;6.07;;
75062;SDS011;63981;51.052;13.754;2023-02-28T04:25:57;8.75;;;5.32;;
75062;SDS011;63981;51.052;13.754;2023-02-28T04:28:23;10.63;;;6.18;;
75062;SDS011;63981;51.052;13.754;2023-02-28T04:30:55;10.48;;;6.55;;
75062;SDS011;63981;51.052;13.754;2023-02-28T04:33:25;10.13;;;6.10;;
75062;SDS011;63981;51.052;13.754;2023-02-28T04:38:28;10.88;;;6.38;;
75062;SDS011;63981;51.052;13.754;2023-02-28T04:40:56;10.57;;;6.88;;
75062;SDS011;63981;51.052;13.754;2023-02-28T04:43:22;9.23;;;6.38;;
75062;SDS011;63981;51.052;13.754;2023-02-28T04:45:48;11.73;;;6.65;;
75062;SDS011;63981;51.052;13.754;2023-02-28T04:48:14;9.90;;;6.07;;
75062;SDS011;63981;51.052;13.754;2023-02-28T04:50:40;9.73;;;6.68;;
75062;SDS011;63981;51.052;13.754;2023-02-28T04:53:06;12.52;;;7.45;;
75062;SDS011;63981;51.052;13.754;2023-02-28T04:55:31;13.10;;;6.30;;
75062;SDS011;63981;51.052;13.754;2023-02-28T04:57:57;12.85;;;7.18;;
75062;SDS011;63981;51.052;13.754;2023-02-28T05:00:23;9.65;;;5.75;;
75062;SDS011;63981;51.052;13.754;2023-02-28T05:02:49;11.60;;;7.00;;
75062;SDS011;63981;51.052;13.754;2023-02-28T05:05:14;9.77;;;5.90;;
75062;SDS011;63981;51.052;13.754;2023-02-28T05:07:43;10.05;;;6.45;;
75062;SDS011;63981;51.052;13.754;2023-02-28T05:10:10;13.43;;;7.13;;
75062;SDS011;63981;51.052;13.754;2023-02-28T05:12:36;15.15;;;7.68;;
75062;SDS011;63981;51.052;13.754;2023-02-28T05:15:03;12.18;;;7.53;;
75062;SDS011;63981;51.052;13.754;2023-02-28T05:17:30;9.82;;;6.57;;
75062;SDS011;63981;51.052;13.754;2023-02-28T05:19:56;12.85;;;6.88;;
75062;SDS011;63981;51.052;13.754;2023-02-28T05:22:22;13.35;;;7.80;;
75062;SDS011;63981;51.052;13.754;2023-02-28T05:24:48;13.88;;;7.18;;
75062;SDS011;63981;51.052;13.754;2023-02-28T05:27:13;11.45;;;6.85;;
75062;SDS011;63981;51.052;13.754;2023-02-28T05:29:39;11.85;;;6.82;;
75062;SDS011;63981;51.052;13.754;2023-02-28T05:32:09;9.43;;;5.90;;
75062;SDS011;63981;51.052;13.754;2023-02-28T05:34:38;10.05;;;6.75;;
75062;SDS011;63981;51.052;13.754;2023-02-28T05:37:05;11.65;;;7.18;;
75062;SDS011;63981;51.052;13.754;2023-02-28T05:39:32;19.52;;;10.05;;
75062;SDS011;63981;51.052;13.754;2023-02-28T05:41:58;14.52;;;7.82;;
75062;SDS011;63981;51.052;13.754;2023-02-28T05:44:24;12.05;;;6.28;;
75062;SDS011;63981;51.052;13.754;2023-02-28T05:46:50;12.10;;;6.85;;
75062;SDS011;63981;51.052;13.754;2023-02-28T05:49:15;9.00;;;5.68;;
75062;SDS011;63981;51.052;13.754;2023-02-28T05:51:41;11.65;;;6.15;;
75062;SDS011;63981;51.052;13.754;2023-02-28T05:54:07;10.02;;;6.07;;
75062;SDS011;63981;51.052;13.754;2023-02-28T05:56:33;13.68;;;8.15;;
75062;SDS011;63981;51.052;13.754;2023-02-28T05:59:04;10.30;;;6.60;;
75062;SDS011;63981;51.052;13.754;2023-02-28T06:01:31;12.20;;;7.57;;
75062;SDS011;63981;51.052;13.754;2023-02-28T06:03:58;11.77;;;7.78;;
75062;SDS011;63981;51.052;13.754;2023-02-28T06:06:25;14.20;;;7.35;;
75062;SDS011;63981;51.052;13.754;2023-02-28T06:08:51;14.05;;;7.75;;
75062;SDS011;63981;51.052;13.754;2023-02-28T06:11:17;11.63;;;7.40;;
75062;SDS011;63981;51.052;13.754;2023-02-28T06:13:45;12.70;;;8.07;;
75062;SDS011;63981;51.052;13.754;2023-02-28T06:16:11;10.95;;;8.50;;
75062;SDS011;63981;51.052;13.754;2023-02-28T06:18:37;12.55;;;7.00;;
75062;SDS011;63981;51.052;13.754;2023-02-28T06:21:03;14.00;;;8.43;;
75062;SDS011;63981;51.052;13.754;2023-02-28T06:23:29;15.48;;;8.50;;
75062;SDS011;63981;51.052;13.754;2023-02-28T06:25:55;14.68;;;8.05;;
75062;SDS011;63981;51.052;13.754;2023-02-28T06:28:24;11.25;;;8.00;;
75062;SDS011;63981;51.052;13.754;2023-02-28T06:30:51;13.52;;;7.43;;
75062;SDS011;63981;51.052;13.754;2023-02-28T06:33:17;11.07;;;8.20;;
75062;SDS011;63981;51.052;13.754;2023-02-28T06:35:51;12.85;;;7.82;;
75062;SDS011;63981;51.052;13.754;2023-02-28T06:38:18;15.63;;;8.75;;
75062;SDS011;63981;51.052;13.754;2023-02-28T06:40:44;15.80;;;7.85;;
75062;SDS011;63981;51.052;13.754;2023-02-28T06:43:10;14.25;;;8.93;;
75062;SDS011;63981;51.052;13.754;2023-02-28T06:45:42;16.33;;;8.15;;
75062;SDS011;63981;51.052;13.754;2023-02-28T06:48:08;16.23;;;9.23;;
75062;SDS011;63981;51.052;13.754;2023-02-28T06:50:35;14.68;;;7.63;;
75062;SDS011;63981;51.052;13.754;2023-02-28T06:53:01;10.90;;;6.88;;
75062;SDS011;63981;51.052;13.754;2023-02-28T06:55:27;15.20;;;8.02;;
75062;SDS011;63981;51.052;13.754;2023-02-28T06:57:53;15.07;;;7.85;;
75062;SDS011;63981;51.052;13.754;2023-02-28T07:00:20;13.00;;;7.10;;
75062;SDS011;63981;51.052;13.754;2023-02-28T07:02:46;12.35;;;6.47;;
75062;SDS011;63981;51.052;13.754;2023-02-28T07:05:12;17.98;;;7.45;;
75062;SDS011;63981;51.052;13.754;2023-02-28T07:07:38;15.82;;;8.68;;
75062;SDS011;63981;51.052;13.754;2023-02-28T07:10:09;11.60;;;6.75;;
75062;SDS011;63981;51.052;13.754;2023-02-28T07:12:36;13.57;;;7.10;;
75062;SDS011;63981;51.052;13.754;2023-02-28T07:15:03;12.20;;;6.72;;
75062;SDS011;63981;51.052;13.754;2023-02-28T07:17:30;12.95;;;7.70;;
75062;SDS011;63981;51.052;13.754;2023-02-28T07:19:56;11.68;;;6.85;;
75062;SDS011;63981;51.052;13.754;2023-02-28T07:22:21;12.00;;;7.20;;
75062;SDS011;63981;51.052;13.754;2023-02-28T07:24:47;13.25;;;7.63;;
75062;SDS011;63981;51.052;13.754;2023-02-28T07:27:13;13.93;;;7.25;;
75062;SDS011;63981;51.052;13.754;2023-02-28T07:29:52;12.38;;;7.15;;
75062;SDS011;63981;51.052;13.754;2023-02-28T07:32:18;13.60;;;7.93;;
75062;SDS011;63981;51.052;13.754;2023-02-28T07:34:45;12.13;;;6.45;;
75062;SDS011;63981;51.052;13.754;2023-02-28T07:37:11;10.88;;;6.63;;
75062;SDS011;63981;51.052;13.754;2023-02-28T07:39:36;14.68;;;7.90;;
75062;SDS011;63981;51.052;13.754;2023-02-28T07:42:05;12.63;;;7.43;;
75062;SDS011;63981;51.052;13.754;2023-02-28T07:44:34;13.43;;;7.20;;
75062;SDS011;63981;51.052;13.754;2023-02-28T07:47:00;11.55;;;6.90;;
75062;SDS011;63981;51.052;13.754;2023-02-28T07:49:26;10.38;;;6.45;;
75062;SDS011;63981;51.052;13.754;2023-02-28T07:51:52;12.27;;;7.75;;
75062;SDS011;63981;51.052;13.754;2023-02-28T07:54:17;11.13;;;6.60;;
75062;SDS011;63981;51.052;13.754;2023-02-28T07:56:43;12.13;;;6.93;;
75062;SDS011;63981;51.052;13.754;2023-02-28T07:59:09;10.32;;;6.38;;
75062;SDS011;63981;51.052;13.754;2023-02-28T08:01:34;10.73;;;7.18;;
75062;SDS011;63981;51.052;13.754;2023-02-28T08:04:00;13.65;;;7.38;;
75062;SDS011;63981;51.052;13.754;2023-02-28T08:06:26;10.85;;;7.78;;
75062;SDS011;63981;51.052;13.754;2023-02-28T08:08:52;11.02;;;7.15;;
75062;SDS011;63981;51.052;13.754;2023-02-28T08:11:18;10.82;;;7.05;;
75062;SDS011;63981;51.052;13.754;2023-02-28T08:13:45;11.10;;;6.97;;
75062;SDS011;63981;51.052;13.754;2023-02-28T08:16:11;13.38;;;7.07;;
75062;SDS011;63981;51.052;13.754;2023-02-28T08:18:40;13.02;;;6.72;;
75062;SDS011;63981;51.052;13.754;2023-02-28T08:21:07;11.95;;;7.20;;
75062;SDS011;63981;51.052;13.754;2023-02-28T08:23:35;13.73;;;7.72;;
75062;SDS011;63981;51.052;13.754;2023-02-28T08:26:00;12.93;;;7.32;;
75062;SDS011;63981;51.052;13.754;2023-02-28T08:28:27;11.85;;;7.13;;
75062;SDS011;63981;51.052;13.754;2023-02-28T08:30:52;12.40;;;6.78;;
75062;SDS011;63981;51.052;13.754;2023-02-28T08:33:19;10.43;;;6.85;;
75062;SDS011;63981;51.052;13.754;2023-02-28T08:35:45;11.82;;;7.53;;
75062;SDS011;63981;51.052;13.754;2023-02-28T08:38:11;10.52;;;6.88;;
75062;SDS011;63981;51.052;13.754;2023-02-28T08:40:37;10.32;;;6.97;;
75062;SDS011;63981;51.052;13.754;2023-02-28T08:43:02;11.80;;;7.22;;
75062;SDS011;63981;51.052;13.754;2023-02-28T08:45:28;12.82;;;7.57;;
75062;SDS011;63981;51.052;13.754;2023-02-28T08:47:54;12.38;;;7.50;;
75062;SDS011;63981;51.052;13.754;2023-02-28T08:50:20;11.27;;;7.35;;
75062;SDS011;63981;51.052;13.754;2023-02-28T08:52:46;12.82;;;6.68;;
75062;SDS011;63981;51.052;13.754;2023-02-28T08:55:12;12.43;;;7.10;;
75062;SDS011;63981;51.052;13.754;2023-02-28T08:57:38;10.38;;;6.93;;
75062;SDS011;63981;51.052;13.754;2023-02-28T09:00:04;11.27;;;6.95;;
75062;SDS011;63981;51.052;13.754;2023-02-28T09:02:30;10.35;;;6.97;;
75062;SDS011;63981;51.052;13.754;2023-02-28T09:04:57;10.32;;;6.20;;
75062;SDS011;63981;51.052;13.754;2023-02-28T09:07:23;11.95;;;6.45;;
75062;SDS011;63981;51.052;13.754;2023-02-28T09:09:49;11.80;;;6.70;;
75062;SDS011;63981;51.052;13.754;2023-02-28T09:12:26;11.65;;;6.60;;
75062;SDS011;63981;51.052;13.754;2023-02-28T09:14:53;9.95;;;6.30;;
75062;SDS011;63981;51.052;13.754;2023-02-28T09:17:19;10.68;;;5.95;;
75062;SDS011;63981;51.052;13.754;2023-02-28T09:19:47;12.35;;;6.80;;
75062;SDS011;63981;51.052;13.754;2023-02-28T09:22:14;10.10;;;6.22;;
75062;SDS011;63981;51.052;13.754;2023-02-28T09:24:41;10.68;;;6.78;;
75062;SDS011;63981;51.052;13.754;2023-02-28T09:27:06;8.93;;;5.85;;
75062;SDS011;63981;51.052;13.754;2023-02-28T09:29:33;11.32;;;5.78;;
75062;SDS011;63981;51.052;13.754;2023-02-28T09:31:59;7.63;;;6.07;;
75062;SDS011;63981;51.052;13.754;2023-02-28T09:34:26;8.55;;;6.05;;
75062;SDS011;63981;51.052;13.754;2023-02-28T09:36:53;9.00;;;6.00;;
75062;SDS011;63981;51.052;13.754;2023-02-28T09:39:20;10.20;;;5.75;;
75062;SDS011;63981;51.052;13.754;2023-02-28T09:41:48;9.52;;;6.20;;
75062;SDS011;63981;51.052;13.754;2023-02-28T09:44:22;9.55;;;6.13;;
75062;SDS011;63981;51.052;13.754;2023-02-28T09:46:59;8.63;;;5.90;;
75062;SDS011;63981;51.052;13.754;2023-02-28T09:49:46;9.55;;;5.78;;
75062;SDS011;63981;51.052;13.754;2023-02-28T09:52:20;7.90;;;5.28;;
75062;SDS011;63981;51.052;13.754;2023-02-28T09:54:52;10.00;;;5.78;;
75062;SDS011;63981;51.052;13.754;2023-02-28T10:05:04;7.68;;;5.43;;
75062;SDS011;63981;51.052;13.754;2023-02-28T10:10:37;9.00;;;5.25;;
75062;SDS011;63981;51.052;13.754;2023-02-28T10:13:14;10.57;;;6.30;;
75062;SDS011;63981;51.052;13.754;2023-02-28T10:18:16;8.63;;;5.25;;
75062;SDS011;63981;51.052;13.754;2023-02-28T10:20:48;8.45;;;5.63;;
75062;SDS011;63981;51.052;13.754;2023-02-28T10:23:34;7.80;;;5.43;;
75062;SDS011;63981;51.052;13.754;2023-02-28T10:28:35;7.50;;;6.10;;
75062;SDS011;63981;51.052;13.754;2023-02-28T10:31:01;9.30;;;6.88;;
75062;SDS011;63981;51.052;13.754;2023-02-28T10:33:29;8.98;;;5.78;;
75062;SDS011;63981;51.052;13.754;2023-02-28T10:35:57;10.73;;;6.53;;
75062;SDS011;63981;51.052;13.754;2023-02-28T10:38:34;8.90;;;6.40;;
75062;SDS011;63981;51.052;13.754;2023-02-28T10:41:09;9.45;;;6.43;;
75062;SDS011;63981;51.052;13.754;2023-02-28T10:46:24;8.90;;;6.03;;
75062;SDS011;63981;51.052;13.754;2023-02-28T10:49:15;9.77;;;7.45;;
75062;SDS011;63981;51.052;13.754;2023-02-28T10:51:59;11.95;;;7.22;;
75062;SDS011;63981;51.052;13.754;2023-02-28T10:54:29;10.38;;;7.57;;
75062;SDS011;63981;51.052;13.754;2023-02-28T10:57:08;11.68;;;7.30;;
75062;SDS011;63981;51.052;13.754;2023-02-28T10:59:34;8.90;;;6.10;;
75062;SDS011;63981;51.052;13.754;2023-02-28T11:02:00;10.18;;;6.38;;
75062;SDS011;63981;51.052;13.754;2023-02-28T11:09:35;10.27;;;6.22;;
75062;SDS011;63981;51.052;13.754;2023-02-28T11:12:04;8.88;;;6.72;;
75062;SDS011;63981;51.052;13.754;2023-02-28T11:14:34;8.85;;;6.65;;
75062;SDS011;63981;51.052;13.754;2023-02-28T11:17:19;10.00;;;6.95;;
75062;SDS011;63981;51.052;13.754;2023-02-28T11:19:52;9.93;;;7.22;;
75062;SDS011;63981;51.052;13.754;2023-02-28T11:22:28;8.25;;;6.63;;
75062;SDS011;63981;51.052;13.754;2023-02-28T11:25:19;7.95;;;6.70;;
75062;SDS011;63981;51.052;13.754;2023-02-28T11:27:57;8.52;;;7.32;;
75062;SDS011;63981;51.052;13.754;2023-02-28T11:30:28;8.93;;;7.00;;
75062;SDS011;63981;51.052;13.754;2023-02-28T11:33:23;8.73;;;6.50;;
75062;SDS011;63981;51.052;13.754;2023-02-28T11:38:24;7.47;;;6.32;;
75062;SDS011;63981;51.052;13.754;2023-02-28T11:43:23;9.20;;;5.88;;
75062;SDS011;63981;51.052;13.754;2023-02-28T11:48:42;9.75;;;6.28;;
75062;SDS011;63981;51.052;13.754;2023-02-28T11:51:30;8.10;;;5.82;;
75062;SDS011;63981;51.052;13.754;2023-02-28T11:54:17;7.38;;;6.05;;
75062;SDS011;63981;51.052;13.754;2023-02-28T11:56:51;8.60;;;5.90;;
75062;SDS011;63981;51.052;13.754;2023-02-28T11:59:28;10.98;;;8.70;;
75062;SDS011;63981;51.052;13.754;2023-02-28T12:10:30;8.80;;;6.30;;
75062;SDS011;63981;51.052;13.754;2023-02-28T12:18:26;8.43;;;6.38;;
75062;SDS011;63981;51.052;13.754;2023-02-28T12:21:05;7.63;;;6.90;;
75062;SDS011;63981;51.052;13.754;2023-02-28T12:28:53;8.18;;;7.38;;
75062;SDS011;63981;51.052;13.754;2023-02-28T12:31:29;7.45;;;6.40;;
75062;SDS011;63981;51.052;13.754;2023-02-28T12:34:03;8.25;;;7.00;;
75062;SDS011;63981;51.052;13.754;2023-02-28T12:36:35;9.75;;;8.07;;
75062;SDS011;63981;51.052;13.754;2023-02-28T12:39:10;9.25;;;7.80;;
75062;SDS011;63981;51.052;13.754;2023-02-28T12:44:11;10.10;;;7.10;;
75062;SDS011;63981;51.052;13.754;2023-02-28T12:46:44;9.52;;;8.10;;
75062;SDS011;63981;51.052;13.754;2023-02-28T12:49:17;9.85;;;7.55;;
75062;SDS011;63981;51.052;13.754;2023-02-28T12:51:51;8.07;;;7.05;;
75062;SDS011;63981;51.052;13.754;2023-02-28T12:54:25;10.00;;;7.82;;
75062;SDS011;63981;51.052;13.754;2023-02-28T12:59:39;10.13;;;8.25;;
75062;SDS011;63981;51.052;13.754;2023-02-28T13:02:15;10.85;;;8.63;;
75062;SDS011;63981;51.052;13.754;2023-02-28T13:10:12;10.45;;;7.03;;
75062;SDS011;63981;51.052;13.754;2023-02-28T13:12:47;11.30;;;7.38;;
75062;SDS011;63981;51.052;13.754;2023-02-28T13:15:18;12.32;;;7.43;;
75062;SDS011;63981;51.052;13.754;2023-02-28T13:17:53;11.40;;;7.70;;
75062;SDS011;63981;51.052;13.754;2023-02-28T13:20:21;9.77;;;7.30;;
75062;SDS011;63981;51.052;13.754;2023-02-28T13:22:51;10.88;;;7.82;;
75062;SDS011;63981;51.052;13.754;2023-02-28T13:27:47;9.82;;;6.93;;
75062;SDS011;63981;51.052;13.754;2023-02-28T13:36:22;10.70;;;7.43;;
75062;SDS011;63981;51.052;13.754;2023-02-28T13:38:51;12.25;;;8.55;;
75062;SDS011;63981;51.052;13.754;2023-02-28T13:46:32;10.90;;;8.00;;
75062;SDS011;63981;51.052;13.754;2023-02-28T13:57:20;11.43;;;8.50;;
75062;SDS011;63981;51.052;13.754;2023-02-28T14:07:56;9.55;;;8.02;;
75062;SDS011;63981;51.052;13.754;2023-02-28T14:10:25;9.60;;;7.95;;
75062;SDS011;63981;51.052;13.754;2023-02-28T14:15:44;10.77;;;9.23;;
75062;SDS011;63981;51.052;13.754;2023-02-28T14:20:39;14.00;;;9.48;;
75062;SDS011;63981;51.052;13.754;2023-02-28T14:26:18;9.23;;;7.50;;
75062;SDS011;63981;51.052;13.754;2023-02-28T14:31:29;11.90;;;9.38;;
75062;SDS011;63981;51.052;13.754;2023-02-28T14:36:35;11.85;;;9.23;;
75062;SDS011;63981;51.052;13.754;2023-02-28T14:39:06;9.48;;;8.18;;
75062;SDS011;63981;51.052;13.754;2023-02-28T14:41:44;13.10;;;9.63;;
75062;SDS011;63981;51.052;13.754;2023-02-28T14:46:53;12.43;;;9.05;;
75062;SDS011;63981;51.052;13.754;2023-02-28T14:49:24;10.90;;;8.75;;
75062;SDS011;63981;51.052;13.754;2023-02-28T14:54:31;12.00;;;9.05;;
75062;SDS011;63981;51.052;13.754;2023-02-28T14:56:58;12.38;;;9.25;;
75062;SDS011;63981;51.052;13.754;2023-02-28T14:59:30;10.15;;;8.35;;
75062;SDS011;63981;51.052;13.754;2023-02-28T15:04:52;12.10;;;9.10;;
75062;SDS011;63981;51.052;13.754;2023-02-28T15:07:22;12.40;;;9.40;;
75062;SDS011;63981;51.052;13.754;2023-02-28T15:10:09;12.50;;;8.90;;
75062;SDS011;63981;51.052;13.754;2023-02-28T15:12:56;15.18;;;9.32;;
75062;SDS011;63981;51.052;13.754;2023-02-28T15:16:06;12.57;;;8.70;;
75062;SDS011;63981;51.052;13.754;2023-02-28T15:21:44;11.88;;;8.30;;
75062;SDS011;63981;51.052;13.754;2023-02-28T15:24:00;12.00;;;8.63;;
75062;SDS011;63981;51.052;13.754;2023-02-28T15:26:35;13.45;;;9.10;;
75062;SDS011;63981;51.052;13.754;2023-02-28T15:29:10;14.65;;;9.13;;
75062;SDS011;63981;51.052;13.754;2023-02-28T15:31:45;14.88;;;8.65;;
75062;SDS011;63981;51.052;13.754;2023-02-28T15:34:21;11.00;;;8.20;;
75062;SDS011;63981;51.052;13.754;2023-02-28T15:36:52;15.63;;;9.75;;
75062;SDS011;63981;51.052;13.754;2023-02-28T15:39:19;12.23;;;8.05;;
75062;SDS011;63981;51.052;13.754;2023-02-28T15:41:47;13.30;;;8.90;;
75062;SDS011;63981;51.052;13.754;2023-02-28T15:44:13;13.05;;;7.50;;
75062;SDS011;63981;51.052;13.754;2023-02-28T15:46:45;14.15;;;8.60;;
75062;SDS011;63981;51.052;13.754;2023-02-28T15:49:20;11.98;;;8.20;;
75062;SDS011;63981;51.052;13.754;2023-02-28T15:51:49;15.52;;;10.57;;
75062;SDS011;63981;51.052;13.754;2023-02-28T15:54:22;13.38;;;7.78;;
75062;SDS011;63981;51.052;13.754;2023-02-28T15:56:53;11.93;;;8.23;;
75062;SDS011;63981;51.052;13.754;2023-02-28T15:59:28;11.45;;;7.90;;
75062;SDS011;63981;51.052;13.754;2023-02-28T16:02:13;12.23;;;7.80;;
75062;SDS011;63981;51.052;13.754;2023-02-28T16:07:24;14.13;;;8.82;;
75062;SDS011;63981;51.052;13.754;2023-02-28T16:09:50;15.95;;;8.85;;
75062;SDS011;63981;51.052;13.754;2023-02-28T16:12:16;14.57;;;8.73;;
75062;SDS011;63981;51.052;13.754;2023-02-28T16:14:42;14.55;;;8.43;;
75062;SDS011;63981;51.052;13.754;2023-02-28T16:17:19;14.70;;;8.73;;
75062;SDS011;63981;51.052;13.754;2023-02-28T16:19:47;14.38;;;8.48;;
75062;SDS011;63981;51.052;13.754;2023-02-28T16:22:12;14.10;;;8.90;;
75062;SDS011;63981;51.052;13.754;2023-02-28T16:24:38;12.15;;;7.78;;
75062;SDS011;63981;51.052;13.754;2023-02-28T16:27:05;12.48;;;6.72;;
75062;SDS011;63981;51.052;13.754;2023-02-28T16:29:32;14.70;;;8.45;;
75062;SDS011;63981;51.052;13.754;2023-02-28T16:32:01;11.27;;;7.63;;
75062;SDS011;63981;51.052;13.754;2023-02-28T16:34:30;12.57;;;8.43;;
75062;SDS011;63981;51.052;13.754;2023-02-28T16:36:56;12.18;;;7.60;;
75062;SDS011;63981;51.052;13.754;2023-02-28T16:39:22;13.88;;;8.63;;
75062;SDS011;63981;51.052;13.754;2023-02-28T16:41:48;14.98;;;9.88;;
75062;SDS011;63981;51.052;13.754;2023-02-28T16:44:28;14.45;;;8.75;;
75062;SDS011;63981;51.052;13.754;2023-02-28T16:47:00;14.60;;;8.30;;
75062;SDS011;63981;51.052;13.754;2023-02-28T16:49:27;13.68;;;7.30;;
75062;SDS011;63981;51.052;13.754;2023-02-28T16:51:53;13.20;;;8.35;;
75062;SDS011;63981;51.052;13.754;2023-02-28T16:54:19;16.23;;;8.40;;
75062;SDS011;63981;51.052;13.754;2023-02-28T16:56:45;20.17;;;11.95;;
75062;SDS011;63981;51.052;13.754;2023-02-28T16:59:13;11.88;;;7.53;;
75062;SDS011;63981;51.052;13.754;2023-02-28T17:01:43;13.52;;;8.05;;
75062;SDS011;63981;51.052;13.754;2023-02-28T17:04:10;12.48;;;7.80;;
75062;SDS011;63981;51.052;13.754;2023-02-28T17:06:36;14.57;;;8.27;;
75062;SDS011;63981;51.052;13.754;2023-02-28T17:09:02;11.90;;;6.90;;
75062;SDS011;63981;51.052;13.754;2023-02-28T17:11:28;16.50;;;9.00;;
75062;SDS011;63981;51.052;13.754;2023-02-28T17:13:54;14.57;;;8.38;;
75062;SDS011;63981;51.052;13.754;2023-02-28T17:16:22;12.45;;;8.80;;
75062;SDS011;63981;51.052;13.754;2023-02-28T17:18:54;15.45;;;8.13;;
75062;SDS011;63981;51.052;13.754;2023-02-28T17:21:23;20.13;;;9.45;;
75062;SDS011;63981;51.052;13.754;2023-02-28T17:23:49;14.32;;;8.35;;
75062;SDS011;63981;51.052;13.754;2023-02-28T17:26:15;13.20;;;6.68;;